createdAt,value
2022-07-31T00:00:24.999Z,19.08
2022-07-31T00:15:23.482Z,18.73
2022-07-31T00:30:23.543Z,18.65
2022-07-31T00:45:25.922Z,18.42
2022-07-31T01:00:25.195Z,18.90
2022-07-31T01:15:23.640Z,17.95
2022-07-31T01:30:26.617Z,18.12
2022-07-31T01:45:23.573Z,17.87
2022-07-31T02:00:33.233Z,17.30
2022-07-31T02:15:23.388Z,17.60
2022-07-31T02:30:23.227Z,17.12
2022-07-31T02:45:23.862Z,17.10
2022-07-31T03:00:24.285Z,17.03
2022-07-31T03:15:23.957Z,16.90
2022-07-31T03:30:24.081Z,16.70
2022-07-31T03:45:24.105Z,16.52
2022-07-31T04:00:24.059Z,16.25
2022-07-31T04:15:24.133Z,15.98
2022-07-31T04:30:24.143Z,16.05
2022-07-31T04:45:24.100Z,16.17
2022-07-31T05:00:24.195Z,16.00
2022-07-31T05:15:24.088Z,16.23
2022-07-31T05:30:29.832Z,16.50
2022-07-31T05:45:24.284Z,16.70
2022-07-31T06:00:24.611Z,17.30
2022-07-31T06:15:24.371Z,17.83
2022-07-31T06:30:24.371Z,18.27
2022-07-31T06:45:41.860Z,18.60
2022-07-31T07:00:25.110Z,18.75
2022-07-31T07:15:33.281Z,19.38
2022-07-31T07:30:33.263Z,19.90
2022-07-31T07:45:33.411Z,21.25
2022-07-31T08:00:33.614Z,23.05
2022-07-31T08:15:23.624Z,23.42
2022-07-31T08:30:23.783Z,23.20
2022-07-31T08:45:23.680Z,23.28
2022-07-31T09:00:23.630Z,23.87
2022-07-31T09:15:23.607Z,22.00
2022-07-31T09:30:23.794Z,24.92
2022-07-31T09:45:23.749Z,25.12
2022-07-31T10:00:23.929Z,25.40
2022-07-31T10:15:23.711Z,25.95
2022-07-31T10:30:27.601Z,26.60
2022-07-31T10:45:23.858Z,26.55
2022-07-31T11:00:28.544Z,26.47
2022-07-31T11:15:23.861Z,26.58
2022-07-31T11:30:23.911Z,27.20
2022-07-31T11:45:23.996Z,26.73
2022-07-31T12:00:28.857Z,27.23
2022-07-31T12:15:24.144Z,27.52
2022-07-31T12:30:28.352Z,27.60
2022-07-31T12:45:24.103Z,27.90
2022-07-31T13:00:24.333Z,28.53
2022-07-31T13:15:24.398Z,28.58
2022-07-31T13:30:24.354Z,28.97
2022-07-31T13:45:35.361Z,29.40
2022-07-31T14:00:33.534Z,29.65
2022-07-31T14:15:27.394Z,29.77
2022-07-31T14:30:23.387Z,29.95
2022-07-31T14:45:23.464Z,29.73
2022-07-31T15:00:23.415Z,29.60
2022-07-31T15:15:22.974Z,29.60
2022-07-31T15:30:23.365Z,29.75
2022-07-31T15:45:23.220Z,29.90
2022-07-31T16:00:23.410Z,29.95
2022-07-31T16:15:23.452Z,29.50
2022-07-31T16:30:23.375Z,28.83
2022-07-31T16:45:23.607Z,28.40
2022-07-31T17:00:23.755Z,28.50
2022-07-31T17:15:23.576Z,28.62
2022-07-31T17:30:23.772Z,28.20
2022-07-31T17:45:23.736Z,27.87
2022-07-31T18:00:23.950Z,27.45
2022-07-31T18:15:34.417Z,27.15
2022-07-31T18:30:23.803Z,26.60
2022-07-31T18:45:23.755Z,26.48
2022-07-31T19:00:23.715Z,26.10
2022-07-31T19:15:23.735Z,25.62
2022-07-31T19:30:23.792Z,25.27
2022-07-31T19:45:23.743Z,24.98
2022-07-31T20:00:23.759Z,24.67
2022-07-31T20:15:23.824Z,24.48
2022-07-31T20:30:24.061Z,24.02
2022-07-31T20:45:24.048Z,23.53
2022-07-31T21:00:23.967Z,23.15
2022-07-31T21:15:43.190Z,22.90
2022-07-31T21:30:23.930Z,22.30
2022-07-31T21:45:23.895Z,22.60
2022-07-31T22:00:36.494Z,23.00
2022-07-31T22:15:24.029Z,22.20
2022-07-31T22:30:23.983Z,21.67
2022-07-31T22:45:24.136Z,21.45
2022-07-31T23:00:24.506Z,21.20
2022-07-31T23:15:24.209Z,20.85
2022-07-31T23:30:24.153Z,20.48
2022-07-31T23:45:24.212Z,20.33
